Grand Canyon National Park Airport
KGCN : now visible

Airfield :











YOU CAN JOIN US ON...

 
LOGIN :

Register | Disclaimer

   EN    FR    IT 

 









Legend :    VFR   Marginal VFR   IFR   Intensive IFR   Very Intensive IFR
Visi :
Ceiling :
>= 8 km
>= 3000ft
5 to 8 km
1000 to 3000 ft
1500m to 5 km
500 to 1000 ft
800 to 1500m
200 to 500 ft
< 800m
< 200 ft
Symbols :   Thunderstorms  Fog  Heavy snow  Heavy precipitations  Wind > 20 kt






- Airport Elevation : 6609 ft
- IATA code : GCN


KGCN - Grand Canyon National Park

CURRENT METAR :
  • 031754Z VRB04G15KT 10SM CLR 10/M08 A3001 RMK AO2 SLP138 T01001078 10106 21078 58004

EXPIRED METARs :
  • 031654Z VRB03KT 10SM CLR 09/M06 A3003 RMK AO2 SLP144 T00891061
  • 031554Z 17005KT 10SM CLR 07/M06 A3003 RMK AO2 SLP142 T00721056

TAF KGCN
Valid from the 03 at 18:00 until the 04 at 18:00 UTC


031740Z 0318/0418 VRB05KT P6SM SKC
FM031900 23010G18KT P6SM FEW070
FM040100 VRB04KT P6SM SCT150



MET'MAP, your aeronautical weather chart ! - Copyright ORBIFLY December 2007 - Disclaimer

ORBIFLY MET'MAP TEAM :

Programming & Development : Alexandra Zaïnal
Concept & original design : Baudouin d'Aumeries
Assistance for programming : Marc-Olivier Méhu
Technical & hardware support : Manuel Goepfert

Contact : metmap@orbifly.com




SOURCES & CREDITS :

   NOAA       Earth
Advisory